sensor_id;sensor_type;location;lat;lon;timestamp;P1;durP1;ratioP1;P2;durP2;ratioP2
41305;SDS011;27051;50.376;19.152;2023-03-07T00:01:01;67.60;;;31.10;;
41305;SDS011;27051;50.376;19.152;2023-03-07T00:03:27;64.00;;;27.60;;
41305;SDS011;27051;50.376;19.152;2023-03-07T00:06:04;66.80;;;29.00;;
41305;SDS011;27051;50.376;19.152;2023-03-07T00:08:32;65.40;;;29.80;;
41305;SDS011;27051;50.376;19.152;2023-03-07T00:10:59;63.30;;;27.40;;
41305;SDS011;27051;50.376;19.152;2023-03-07T00:13:27;63.10;;;27.50;;
41305;SDS011;27051;50.376;19.152;2023-03-07T00:16:03;65.10;;;27.80;;
41305;SDS011;27051;50.376;19.152;2023-03-07T00:18:30;69.50;;;29.50;;
41305;SDS011;27051;50.376;19.152;2023-03-07T00:20:57;56.80;;;27.70;;
41305;SDS011;27051;50.376;19.152;2023-03-07T00:23:25;65.30;;;29.00;;
41305;SDS011;27051;50.376;19.152;2023-03-07T00:25:58;62.80;;;27.80;;
41305;SDS011;27051;50.376;19.152;2023-03-07T00:28:25;63.30;;;28.10;;
41305;SDS011;27051;50.376;19.152;2023-03-07T00:30:52;67.40;;;28.20;;
41305;SDS011;27051;50.376;19.152;2023-03-07T00:33:18;58.90;;;26.50;;
41305;SDS011;27051;50.376;19.152;2023-03-07T00:35:45;62.10;;;27.70;;
41305;SDS011;27051;50.376;19.152;2023-03-07T00:38:19;57.30;;;27.90;;
41305;SDS011;27051;50.376;19.152;2023-03-07T00:40:45;58.40;;;26.10;;
41305;SDS011;27051;50.376;19.152;2023-03-07T00:43:11;57.60;;;27.90;;
41305;SDS011;27051;50.376;19.152;2023-03-07T00:45:38;58.20;;;27.60;;
41305;SDS011;27051;50.376;19.152;2023-03-07T00:48:04;59.90;;;28.90;;
41305;SDS011;27051;50.376;19.152;2023-03-07T00:50:30;55.80;;;26.10;;
41305;SDS011;27051;50.376;19.152;2023-03-07T00:52:56;59.10;;;25.90;;
41305;SDS011;27051;50.376;19.152;2023-03-07T00:55:22;50.30;;;24.80;;
41305;SDS011;27051;50.376;19.152;2023-03-07T00:57:48;55.20;;;25.50;;
41305;SDS011;27051;50.376;19.152;2023-03-07T01:00:15;55.90;;;26.70;;
41305;SDS011;27051;50.376;19.152;2023-03-07T01:02:41;57.80;;;26.50;;
41305;SDS011;27051;50.376;19.152;2023-03-07T01:05:07;61.70;;;29.70;;
41305;SDS011;27051;50.376;19.152;2023-03-07T01:07:33;60.00;;;28.20;;
41305;SDS011;27051;50.376;19.152;2023-03-07T01:09:59;62.80;;;27.50;;
41305;SDS011;27051;50.376;19.152;2023-03-07T01:12:26;56.10;;;28.30;;
41305;SDS011;27051;50.376;19.152;2023-03-07T01:14:52;63.00;;;27.30;;
41305;SDS011;27051;50.376;19.152;2023-03-07T01:17:18;62.00;;;27.60;;
41305;SDS011;27051;50.376;19.152;2023-03-07T01:19:44;56.80;;;26.90;;
41305;SDS011;27051;50.376;19.152;2023-03-07T01:22:10;57.60;;;26.70;;
41305;SDS011;27051;50.376;19.152;2023-03-07T01:24:37;58.80;;;26.60;;
41305;SDS011;27051;50.376;19.152;2023-03-07T01:27:04;56.70;;;26.10;;
41305;SDS011;27051;50.376;19.152;2023-03-07T01:29:30;54.30;;;25.90;;
41305;SDS011;27051;50.376;19.152;2023-03-07T01:31:56;55.80;;;27.80;;
41305;SDS011;27051;50.376;19.152;2023-03-07T01:34:22;60.50;;;28.90;;
41305;SDS011;27051;50.376;19.152;2023-03-07T01:36:48;64.50;;;30.00;;
41305;SDS011;27051;50.376;19.152;2023-03-07T01:39:15;67.90;;;31.50;;
41305;SDS011;27051;50.376;19.152;2023-03-07T01:41:42;62.80;;;30.20;;
41305;SDS011;27051;50.376;19.152;2023-03-07T01:44:19;70.40;;;33.80;;
41305;SDS011;27051;50.376;19.152;2023-03-07T01:46:51;59.80;;;28.80;;
41305;SDS011;27051;50.376;19.152;2023-03-07T01:49:22;55.60;;;26.00;;
41305;SDS011;27051;50.376;19.152;2023-03-07T01:52:00;55.40;;;25.40;;
41305;SDS011;27051;50.376;19.152;2023-03-07T01:54:29;56.00;;;24.40;;
41305;SDS011;27051;50.376;19.152;2023-03-07T01:56:59;55.70;;;26.10;;
41305;SDS011;27051;50.376;19.152;2023-03-07T01:59:28;52.40;;;25.00;;
41305;SDS011;27051;50.376;19.152;2023-03-07T02:02:17;50.20;;;23.80;;
41305;SDS011;27051;50.376;19.152;2023-03-07T02:07:29;52.50;;;24.40;;
41305;SDS011;27051;50.376;19.152;2023-03-07T02:09:58;51.80;;;24.40;;
41305;SDS011;27051;50.376;19.152;2023-03-07T02:12:25;49.00;;;23.30;;
41305;SDS011;27051;50.376;19.152;2023-03-07T02:14:52;50.20;;;25.00;;
41305;SDS011;27051;50.376;19.152;2023-03-07T02:17:18;46.80;;;22.50;;
41305;SDS011;27051;50.376;19.152;2023-03-07T02:22:39;51.30;;;24.30;;
41305;SDS011;27051;50.376;19.152;2023-03-07T02:25:15;48.80;;;23.50;;
41305;SDS011;27051;50.376;19.152;2023-03-07T02:28:02;53.60;;;24.50;;
41305;SDS011;27051;50.376;19.152;2023-03-07T02:30:30;45.50;;;22.90;;
41305;SDS011;27051;50.376;19.152;2023-03-07T02:32:56;46.60;;;23.10;;
41305;SDS011;27051;50.376;19.152;2023-03-07T02:35:23;44.70;;;23.30;;
41305;SDS011;27051;50.376;19.152;2023-03-07T02:37:54;46.90;;;23.50;;
41305;SDS011;27051;50.376;19.152;2023-03-07T02:40:24;48.10;;;23.90;;
41305;SDS011;27051;50.376;19.152;2023-03-07T02:42:54;46.20;;;22.20;;
41305;SDS011;27051;50.376;19.152;2023-03-07T02:45:25;46.20;;;21.80;;
41305;SDS011;27051;50.376;19.152;2023-03-07T02:47:51;46.30;;;22.40;;
41305;SDS011;27051;50.376;19.152;2023-03-07T02:50:17;45.20;;;22.20;;
41305;SDS011;27051;50.376;19.152;2023-03-07T02:52:43;47.30;;;21.90;;
41305;SDS011;27051;50.376;19.152;2023-03-07T02:55:10;45.20;;;22.30;;
41305;SDS011;27051;50.376;19.152;2023-03-07T02:57:36;42.60;;;21.90;;
41305;SDS011;27051;50.376;19.152;2023-03-07T03:00:03;42.10;;;20.90;;
41305;SDS011;27051;50.376;19.152;2023-03-07T03:02:29;41.70;;;21.50;;
41305;SDS011;27051;50.376;19.152;2023-03-07T03:04:56;45.80;;;22.00;;
41305;SDS011;27051;50.376;19.152;2023-03-07T03:07:22;47.20;;;23.00;;
41305;SDS011;27051;50.376;19.152;2023-03-07T03:09:48;45.20;;;22.90;;
41305;SDS011;27051;50.376;19.152;2023-03-07T03:12:14;42.00;;;20.90;;
41305;SDS011;27051;50.376;19.152;2023-03-07T03:14:40;49.30;;;23.60;;
41305;SDS011;27051;50.376;19.152;2023-03-07T03:17:06;42.40;;;21.80;;
41305;SDS011;27051;50.376;19.152;2023-03-07T03:19:33;43.30;;;21.10;;
41305;SDS011;27051;50.376;19.152;2023-03-07T03:21:59;44.50;;;23.90;;
41305;SDS011;27051;50.376;19.152;2023-03-07T03:24:25;43.10;;;22.40;;
41305;SDS011;27051;50.376;19.152;2023-03-07T03:26:54;47.40;;;23.10;;
41305;SDS011;27051;50.376;19.152;2023-03-07T03:29:21;43.20;;;22.30;;
41305;SDS011;27051;50.376;19.152;2023-03-07T03:31:47;42.80;;;21.50;;
41305;SDS011;27051;50.376;19.152;2023-03-07T03:34:13;42.60;;;21.60;;
41305;SDS011;27051;50.376;19.152;2023-03-07T03:36:39;45.80;;;20.80;;
41305;SDS011;27051;50.376;19.152;2023-03-07T03:39:05;49.90;;;21.30;;
41305;SDS011;27051;50.376;19.152;2023-03-07T03:41:32;41.80;;;22.10;;
41305;SDS011;27051;50.376;19.152;2023-03-07T03:43:58;47.50;;;22.20;;
41305;SDS011;27051;50.376;19.152;2023-03-07T03:46:24;45.70;;;22.70;;
41305;SDS011;27051;50.376;19.152;2023-03-07T03:48:51;44.10;;;21.10;;
41305;SDS011;27051;50.376;19.152;2023-03-07T03:51:17;41.80;;;22.10;;
41305;SDS011;27051;50.376;19.152;2023-03-07T03:53:43;41.30;;;21.60;;
41305;SDS011;27051;50.376;19.152;2023-03-07T03:56:13;45.60;;;22.10;;
41305;SDS011;27051;50.376;19.152;2023-03-07T03:58:41;47.90;;;22.40;;
41305;SDS011;27051;50.376;19.152;2023-03-07T04:01:09;41.80;;;21.80;;
41305;SDS011;27051;50.376;19.152;2023-03-07T04:03:37;40.50;;;21.00;;
41305;SDS011;27051;50.376;19.152;2023-03-07T04:06:06;40.90;;;21.30;;
41305;SDS011;27051;50.376;19.152;2023-03-07T04:08:34;40.50;;;20.30;;
41305;SDS011;27051;50.376;19.152;2023-03-07T04:11:01;39.90;;;21.70;;
41305;SDS011;27051;50.376;19.152;2023-03-07T04:13:27;38.90;;;19.90;;
41305;SDS011;27051;50.376;19.152;2023-03-07T04:15:53;44.80;;;21.60;;
41305;SDS011;27051;50.376;19.152;2023-03-07T04:18:20;39.10;;;20.10;;
41305;SDS011;27051;50.376;19.152;2023-03-07T04:20:46;40.90;;;21.70;;
41305;SDS011;27051;50.376;19.152;2023-03-07T04:23:13;38.90;;;20.00;;
41305;SDS011;27051;50.376;19.152;2023-03-07T04:25:39;38.90;;;20.30;;
41305;SDS011;27051;50.376;19.152;2023-03-07T04:28:06;40.00;;;20.70;;
41305;SDS011;27051;50.376;19.152;2023-03-07T04:30:32;39.20;;;20.20;;
41305;SDS011;27051;50.376;19.152;2023-03-07T04:32:58;40.30;;;20.80;;
41305;SDS011;27051;50.376;19.152;2023-03-07T04:35:24;42.60;;;20.40;;
41305;SDS011;27051;50.376;19.152;2023-03-07T04:37:50;41.70;;;21.60;;
41305;SDS011;27051;50.376;19.152;2023-03-07T04:40:17;40.70;;;20.20;;
41305;SDS011;27051;50.376;19.152;2023-03-07T04:42:43;38.80;;;19.40;;
41305;SDS011;27051;50.376;19.152;2023-03-07T04:45:09;44.20;;;21.70;;
41305;SDS011;27051;50.376;19.152;2023-03-07T04:47:35;41.10;;;20.90;;
41305;SDS011;27051;50.376;19.152;2023-03-07T04:50:01;42.20;;;23.30;;
41305;SDS011;27051;50.376;19.152;2023-03-07T04:52:28;45.60;;;22.70;;
41305;SDS011;27051;50.376;19.152;2023-03-07T04:54:54;42.70;;;22.40;;
41305;SDS011;27051;50.376;19.152;2023-03-07T04:57:20;43.50;;;23.90;;
41305;SDS011;27051;50.376;19.152;2023-03-07T04:59:46;42.30;;;21.10;;
41305;SDS011;27051;50.376;19.152;2023-03-07T05:02:12;45.00;;;22.40;;
41305;SDS011;27051;50.376;19.152;2023-03-07T05:04:39;46.90;;;21.60;;
41305;SDS011;27051;50.376;19.152;2023-03-07T05:07:05;43.00;;;22.00;;
41305;SDS011;27051;50.376;19.152;2023-03-07T05:09:31;47.50;;;23.20;;
41305;SDS011;27051;50.376;19.152;2023-03-07T05:11:57;44.20;;;23.20;;
41305;SDS011;27051;50.376;19.152;2023-03-07T05:14:24;46.10;;;24.10;;
41305;SDS011;27051;50.376;19.152;2023-03-07T05:16:50;42.10;;;21.60;;
41305;SDS011;27051;50.376;19.152;2023-03-07T05:19:16;49.30;;;25.20;;
41305;SDS011;27051;50.376;19.152;2023-03-07T05:21:42;48.00;;;25.30;;
41305;SDS011;27051;50.376;19.152;2023-03-07T05:24:09;44.10;;;22.10;;
41305;SDS011;27051;50.376;19.152;2023-03-07T05:26:35;43.50;;;24.10;;
41305;SDS011;27051;50.376;19.152;2023-03-07T05:29:01;48.50;;;24.60;;
41305;SDS011;27051;50.376;19.152;2023-03-07T05:31:28;52.00;;;27.00;;
41305;SDS011;27051;50.376;19.152;2023-03-07T05:33:56;48.10;;;25.60;;
41305;SDS011;27051;50.376;19.152;2023-03-07T05:36:22;55.50;;;25.80;;
41305;SDS011;27051;50.376;19.152;2023-03-07T05:38:48;71.40;;;32.30;;
41305;SDS011;27051;50.376;19.152;2023-03-07T05:41:14;57.40;;;30.10;;
41305;SDS011;27051;50.376;19.152;2023-03-07T05:43:41;44.40;;;26.10;;
41305;SDS011;27051;50.376;19.152;2023-03-07T05:46:07;53.20;;;27.40;;
41305;SDS011;27051;50.376;19.152;2023-03-07T05:48:33;64.20;;;31.60;;
41305;SDS011;27051;50.376;19.152;2023-03-07T05:50:59;51.80;;;26.10;;
41305;SDS011;27051;50.376;19.152;2023-03-07T05:53:25;44.20;;;25.20;;
41305;SDS011;27051;50.376;19.152;2023-03-07T05:55:52;47.10;;;26.80;;
41305;SDS011;27051;50.376;19.152;2023-03-07T05:58:18;51.70;;;28.40;;
41305;SDS011;27051;50.376;19.152;2023-03-07T06:00:44;54.30;;;27.70;;
41305;SDS011;27051;50.376;19.152;2023-03-07T06:03:10;51.60;;;25.60;;
41305;SDS011;27051;50.376;19.152;2023-03-07T06:05:36;48.70;;;26.80;;
41305;SDS011;27051;50.376;19.152;2023-03-07T06:08:03;55.40;;;28.30;;
41305;SDS011;27051;50.376;19.152;2023-03-07T06:10:29;57.10;;;29.10;;
41305;SDS011;27051;50.376;19.152;2023-03-07T06:12:55;54.40;;;28.60;;
41305;SDS011;27051;50.376;19.152;2023-03-07T06:15:21;53.10;;;27.30;;
41305;SDS011;27051;50.376;19.152;2023-03-07T06:17:48;52.60;;;28.40;;
41305;SDS011;27051;50.376;19.152;2023-03-07T06:20:14;48.10;;;26.00;;
41305;SDS011;27051;50.376;19.152;2023-03-07T06:22:40;49.20;;;24.30;;
41305;SDS011;27051;50.376;19.152;2023-03-07T06:25:06;42.50;;;20.00;;
41305;SDS011;27051;50.376;19.152;2023-03-07T06:27:33;36.90;;;18.70;;
41305;SDS011;27051;50.376;19.152;2023-03-07T06:30:00;35.50;;;18.80;;
41305;SDS011;27051;50.376;19.152;2023-03-07T06:32:27;37.60;;;19.00;;
41305;SDS011;27051;50.376;19.152;2023-03-07T06:34:53;37.20;;;17.60;;
41305;SDS011;27051;50.376;19.152;2023-03-07T06:37:19;32.70;;;16.50;;
41305;SDS011;27051;50.376;19.152;2023-03-07T06:39:45;32.60;;;16.30;;
41305;SDS011;27051;50.376;19.152;2023-03-07T06:42:11;31.80;;;15.80;;
41305;SDS011;27051;50.376;19.152;2023-03-07T06:44:38;33.10;;;16.50;;
41305;SDS011;27051;50.376;19.152;2023-03-07T06:47:04;33.70;;;17.50;;
41305;SDS011;27051;50.376;19.152;2023-03-07T06:49:30;34.30;;;16.00;;
41305;SDS011;27051;50.376;19.152;2023-03-07T06:51:56;33.80;;;16.80;;
41305;SDS011;27051;50.376;19.152;2023-03-07T06:54:22;37.60;;;18.70;;
41305;SDS011;27051;50.376;19.152;2023-03-07T06:56:48;32.00;;;15.70;;
41305;SDS011;27051;50.376;19.152;2023-03-07T06:59:15;37.90;;;18.20;;
41305;SDS011;27051;50.376;19.152;2023-03-07T07:01:41;36.70;;;16.30;;
41305;SDS011;27051;50.376;19.152;2023-03-07T07:04:08;36.10;;;16.80;;
41305;SDS011;27051;50.376;19.152;2023-03-07T07:06:35;34.00;;;15.60;;
41305;SDS011;27051;50.376;19.152;2023-03-07T07:09:02;32.00;;;16.20;;
41305;SDS011;27051;50.376;19.152;2023-03-07T07:11:28;35.00;;;16.70;;
41305;SDS011;27051;50.376;19.152;2023-03-07T07:13:54;33.90;;;17.00;;
41305;SDS011;27051;50.376;19.152;2023-03-07T07:16:20;33.60;;;16.50;;
41305;SDS011;27051;50.376;19.152;2023-03-07T07:18:48;32.60;;;16.20;;
41305;SDS011;27051;50.376;19.152;2023-03-07T07:21:15;32.70;;;15.70;;
41305;SDS011;27051;50.376;19.152;2023-03-07T07:23:41;30.40;;;15.20;;
41305;SDS011;27051;50.376;19.152;2023-03-07T07:26:08;38.30;;;15.90;;
41305;SDS011;27051;50.376;19.152;2023-03-07T07:28:34;30.00;;;14.40;;
41305;SDS011;27051;50.376;19.152;2023-03-07T07:31:00;32.10;;;16.30;;
41305;SDS011;27051;50.376;19.152;2023-03-07T07:33:26;28.40;;;15.00;;
41305;SDS011;27051;50.376;19.152;2023-03-07T07:35:53;31.40;;;15.80;;
41305;SDS011;27051;50.376;19.152;2023-03-07T07:38:19;31.30;;;16.70;;
41305;SDS011;27051;50.376;19.152;2023-03-07T07:40:45;31.00;;;16.20;;
41305;SDS011;27051;50.376;19.152;2023-03-07T07:43:15;34.10;;;16.40;;
41305;SDS011;27051;50.376;19.152;2023-03-07T07:45:42;30.70;;;15.20;;
41305;SDS011;27051;50.376;19.152;2023-03-07T07:48:08;36.60;;;17.70;;
41305;SDS011;27051;50.376;19.152;2023-03-07T07:50:34;27.50;;;14.50;;
41305;SDS011;27051;50.376;19.152;2023-03-07T07:53:00;28.80;;;15.20;;
41305;SDS011;27051;50.376;19.152;2023-03-07T07:55:26;32.10;;;16.50;;
41305;SDS011;27051;50.376;19.152;2023-03-07T07:57:53;29.70;;;15.40;;
41305;SDS011;27051;50.376;19.152;2023-03-07T08:00:20;31.50;;;15.30;;
41305;SDS011;27051;50.376;19.152;2023-03-07T08:02:47;35.10;;;15.60;;
41305;SDS011;27051;50.376;19.152;2023-03-07T08:05:13;27.70;;;14.20;;
41305;SDS011;27051;50.376;19.152;2023-03-07T08:07:39;27.50;;;14.00;;
41305;SDS011;27051;50.376;19.152;2023-03-07T08:10:06;30.50;;;15.60;;
41305;SDS011;27051;50.376;19.152;2023-03-07T08:12:32;26.80;;;13.20;;
41305;SDS011;27051;50.376;19.152;2023-03-07T08:14:58;29.40;;;13.50;;
41305;SDS011;27051;50.376;19.152;2023-03-07T08:17:25;30.90;;;13.90;;
41305;SDS011;27051;50.376;19.152;2023-03-07T08:19:51;29.00;;;14.60;;
41305;SDS011;27051;50.376;19.152;2023-03-07T08:22:17;31.50;;;15.30;;
41305;SDS011;27051;50.376;19.152;2023-03-07T08:24:43;27.90;;;13.90;;
41305;SDS011;27051;50.376;19.152;2023-03-07T08:27:10;35.10;;;16.50;;
41305;SDS011;27051;50.376;19.152;2023-03-07T08:29:36;28.50;;;14.70;;
41305;SDS011;27051;50.376;19.152;2023-03-07T08:32:03;34.00;;;15.30;;
41305;SDS011;27051;50.376;19.152;2023-03-07T08:34:31;29.40;;;16.20;;
41305;SDS011;27051;50.376;19.152;2023-03-07T08:36:57;33.40;;;17.70;;
41305;SDS011;27051;50.376;19.152;2023-03-07T08:39:23;35.70;;;18.20;;
41305;SDS011;27051;50.376;19.152;2023-03-07T08:41:49;41.60;;;19.40;;
41305;SDS011;27051;50.376;19.152;2023-03-07T08:44:16;57.00;;;31.10;;
41305;SDS011;27051;50.376;19.152;2023-03-07T08:46:42;57.40;;;30.10;;
41305;SDS011;27051;50.376;19.152;2023-03-07T08:49:08;47.80;;;28.10;;
41305;SDS011;27051;50.376;19.152;2023-03-07T08:51:35;44.20;;;24.80;;
41305;SDS011;27051;50.376;19.152;2023-03-07T08:54:01;57.50;;;33.20;;
41305;SDS011;27051;50.376;19.152;2023-03-07T08:56:28;49.90;;;26.20;;
41305;SDS011;27051;50.376;19.152;2023-03-07T08:58:54;39.10;;;22.50;;
41305;SDS011;27051;50.376;19.152;2023-03-07T09:01:20;41.80;;;22.60;;
41305;SDS011;27051;50.376;19.152;2023-03-07T09:03:46;42.10;;;19.90;;
41305;SDS011;27051;50.376;19.152;2023-03-07T09:06:16;32.20;;;17.60;;
41305;SDS011;27051;50.376;19.152;2023-03-07T09:08:44;36.60;;;18.90;;
41305;SDS011;27051;50.376;19.152;2023-03-07T09:11:10;35.00;;;19.50;;
41305;SDS011;27051;50.376;19.152;2023-03-07T09:13:37;34.40;;;18.30;;
41305;SDS011;27051;50.376;19.152;2023-03-07T09:16:04;36.60;;;18.50;;
41305;SDS011;27051;50.376;19.152;2023-03-07T09:18:31;39.40;;;19.40;;
41305;SDS011;27051;50.376;19.152;2023-03-07T09:20:58;31.10;;;16.00;;
41305;SDS011;27051;50.376;19.152;2023-03-07T09:23:25;28.60;;;15.00;;
41305;SDS011;27051;50.376;19.152;2023-03-07T09:25:51;31.20;;;15.60;;
41305;SDS011;27051;50.376;19.152;2023-03-07T09:28:18;33.80;;;16.20;;
41305;SDS011;27051;50.376;19.152;2023-03-07T09:30:46;44.40;;;20.50;;
41305;SDS011;27051;50.376;19.152;2023-03-07T09:33:12;34.10;;;20.00;;
41305;SDS011;27051;50.376;19.152;2023-03-07T09:35:38;59.50;;;34.80;;
41305;SDS011;27051;50.376;19.152;2023-03-07T09:38:05;40.50;;;21.80;;
41305;SDS011;27051;50.376;19.152;2023-03-07T09:40:31;47.80;;;28.70;;
41305;SDS011;27051;50.376;19.152;2023-03-07T09:43:21;48.80;;;26.20;;
41305;SDS011;27051;50.376;19.152;2023-03-07T09:53:54;50.50;;;25.00;;
41305;SDS011;27051;50.376;19.152;2023-03-07T09:56:24;55.70;;;25.90;;
41305;SDS011;27051;50.376;19.152;2023-03-07T10:07:29;42.00;;;20.10;;
41305;SDS011;27051;50.376;19.152;2023-03-07T10:09:56;31.50;;;15.70;;
41305;SDS011;27051;50.376;19.152;2023-03-07T10:12:41;36.60;;;19.20;;
41305;SDS011;27051;50.376;19.152;2023-03-07T10:18:08;36.90;;;16.20;;
41305;SDS011;27051;50.376;19.152;2023-03-07T10:23:26;35.40;;;15.70;;
41305;SDS011;27051;50.376;19.152;2023-03-07T10:26:14;35.70;;;17.60;;
41305;SDS011;27051;50.376;19.152;2023-03-07T10:28:46;21.60;;;9.90;;
41305;SDS011;27051;50.376;19.152;2023-03-07T10:31:14;32.00;;;16.40;;
41305;SDS011;27051;50.376;19.152;2023-03-07T10:33:44;30.80;;;15.10;;
41305;SDS011;27051;50.376;19.152;2023-03-07T10:36:14;22.90;;;11.50;;
41305;SDS011;27051;50.376;19.152;2023-03-07T10:41:44;21.80;;;9.20;;
41305;SDS011;27051;50.376;19.152;2023-03-07T10:44:14;24.60;;;11.10;;
41305;SDS011;27051;50.376;19.152;2023-03-07T10:46:44;23.70;;;11.50;;
41305;SDS011;27051;50.376;19.152;2023-03-07T10:49:12;20.30;;;10.10;;
41305;SDS011;27051;50.376;19.152;2023-03-07T10:52:05;24.10;;;12.20;;
41305;SDS011;27051;50.376;19.152;2023-03-07T10:54:42;27.10;;;13.00;;
41305;SDS011;27051;50.376;19.152;2023-03-07T10:57:09;19.80;;;10.50;;
41305;SDS011;27051;50.376;19.152;2023-03-07T11:02:28;20.20;;;9.80;;
41305;SDS011;27051;50.376;19.152;2023-03-07T11:07:51;15.30;;;8.40;;
41305;SDS011;27051;50.376;19.152;2023-03-07T11:10:34;14.80;;;8.50;;
41305;SDS011;27051;50.376;19.152;2023-03-07T11:13:10;21.10;;;9.40;;
41305;SDS011;27051;50.376;19.152;2023-03-07T11:15:39;16.70;;;8.70;;
41305;SDS011;27051;50.376;19.152;2023-03-07T11:20:56;19.40;;;9.50;;
41305;SDS011;27051;50.376;19.152;2023-03-07T11:23:26;17.00;;;8.90;;
41305;SDS011;27051;50.376;19.152;2023-03-07T11:25:54;17.20;;;9.30;;
41305;SDS011;27051;50.376;19.152;2023-03-07T11:28:29;16.40;;;9.20;;
41305;SDS011;27051;50.376;19.152;2023-03-07T11:31:06;19.30;;;9.70;;
41305;SDS011;27051;50.376;19.152;2023-03-07T11:33:58;19.20;;;9.40;;
41305;SDS011;27051;50.376;19.152;2023-03-07T11:36:31;23.90;;;10.90;;
41305;SDS011;27051;50.376;19.152;2023-03-07T11:39:00;23.40;;;11.40;;
41305;SDS011;27051;50.376;19.152;2023-03-07T11:41:47;24.30;;;12.30;;
41305;SDS011;27051;50.376;19.152;2023-03-07T11:44:33;22.30;;;11.70;;
41305;SDS011;27051;50.376;19.152;2023-03-07T11:49:45;22.10;;;11.40;;
41305;SDS011;27051;50.376;19.152;2023-03-07T11:52:38;20.60;;;11.20;;
41305;SDS011;27051;50.376;19.152;2023-03-07T12:12:41;22.00;;;10.90;;
41305;SDS011;27051;50.376;19.152;2023-03-07T12:15:36;23.30;;;11.90;;
41305;SDS011;27051;50.376;19.152;2023-03-07T12:24:19;29.00;;;13.80;;
41305;SDS011;27051;50.376;19.152;2023-03-07T12:26:53;32.70;;;15.50;;
41305;SDS011;27051;50.376;19.152;2023-03-07T12:29:34;34.60;;;15.60;;
41305;SDS011;27051;50.376;19.152;2023-03-07T12:32:06;31.80;;;15.00;;
41305;SDS011;27051;50.376;19.152;2023-03-07T12:34:41;30.70;;;14.90;;
41305;SDS011;27051;50.376;19.152;2023-03-07T12:37:17;40.40;;;18.60;;
41305;SDS011;27051;50.376;19.152;2023-03-07T12:39:55;28.00;;;15.70;;
41305;SDS011;27051;50.376;19.152;2023-03-07T12:42:29;25.80;;;12.90;;
41305;SDS011;27051;50.376;19.152;2023-03-07T12:45:02;23.00;;;12.00;;
41305;SDS011;27051;50.376;19.152;2023-03-07T12:47:54;25.40;;;11.40;;
41305;SDS011;27051;50.376;19.152;2023-03-07T12:56:04;27.70;;;13.10;;
41305;SDS011;27051;50.376;19.152;2023-03-07T12:58:46;25.00;;;12.70;;
41305;SDS011;27051;50.376;19.152;2023-03-07T13:06:28;25.80;;;13.60;;
41305;SDS011;27051;50.376;19.152;2023-03-07T13:08:57;26.60;;;14.30;;
41305;SDS011;27051;50.376;19.152;2023-03-07T13:11:26;25.40;;;12.70;;
41305;SDS011;27051;50.376;19.152;2023-03-07T13:16:31;23.90;;;12.70;;
41305;SDS011;27051;50.376;19.152;2023-03-07T13:21:55;22.80;;;12.60;;
41305;SDS011;27051;50.376;19.152;2023-03-07T13:24:35;23.90;;;13.40;;
41305;SDS011;27051;50.376;19.152;2023-03-07T13:27:03;21.10;;;12.50;;
41305;SDS011;27051;50.376;19.152;2023-03-07T13:40:24;25.50;;;14.00;;
41305;SDS011;27051;50.376;19.152;2023-03-07T13:48:11;20.10;;;10.90;;
41305;SDS011;27051;50.376;19.152;2023-03-07T13:58:45;30.10;;;15.70;;
41305;SDS011;27051;50.376;19.152;2023-03-07T14:01:16;21.10;;;11.70;;
41305;SDS011;27051;50.376;19.152;2023-03-07T14:03:48;20.10;;;11.20;;
41305;SDS011;27051;50.376;19.152;2023-03-07T14:06:21;25.20;;;14.60;;
41305;SDS011;27051;50.376;19.152;2023-03-07T14:08:55;24.60;;;13.70;;
41305;SDS011;27051;50.376;19.152;2023-03-07T14:14:17;24.30;;;13.20;;
41305;SDS011;27051;50.376;19.152;2023-03-07T14:22:52;27.60;;;12.70;;
41305;SDS011;27051;50.376;19.152;2023-03-07T14:25:29;23.00;;;12.40;;
41305;SDS011;27051;50.376;19.152;2023-03-07T14:27:58;22.50;;;12.60;;
41305;SDS011;27051;50.376;19.152;2023-03-07T14:30:27;24.30;;;12.10;;
41305;SDS011;27051;50.376;19.152;2023-03-07T14:32:58;24.80;;;12.10;;
41305;SDS011;27051;50.376;19.152;2023-03-07T14:35:35;25.20;;;13.50;;
41305;SDS011;27051;50.376;19.152;2023-03-07T14:38:20;23.40;;;13.70;;
41305;SDS011;27051;50.376;19.152;2023-03-07T14:46:19;22.80;;;12.70;;
41305;SDS011;27051;50.376;19.152;2023-03-07T14:51:26;26.80;;;15.00;;
41305;SDS011;27051;50.376;19.152;2023-03-07T14:53:54;27.80;;;14.50;;
41305;SDS011;27051;50.376;19.152;2023-03-07T14:56:22;28.80;;;15.20;;
41305;SDS011;27051;50.376;19.152;2023-03-07T14:58:53;27.60;;;14.80;;
41305;SDS011;27051;50.376;19.152;2023-03-07T15:01:26;31.80;;;15.10;;
41305;SDS011;27051;50.376;19.152;2023-03-07T15:03:55;29.10;;;15.20;;
41305;SDS011;27051;50.376;19.152;2023-03-07T15:06:22;30.80;;;15.60;;
41305;SDS011;27051;50.376;19.152;2023-03-07T15:08:51;27.60;;;14.30;;
41305;SDS011;27051;50.376;19.152;2023-03-07T15:13:58;33.40;;;16.70;;
41305;SDS011;27051;50.376;19.152;2023-03-07T15:16:32;40.30;;;20.90;;
41305;SDS011;27051;50.376;19.152;2023-03-07T15:19:13;50.20;;;24.70;;
41305;SDS011;27051;50.376;19.152;2023-03-07T15:21:45;49.00;;;23.90;;
41305;SDS011;27051;50.376;19.152;2023-03-07T15:24:15;44.00;;;22.10;;
41305;SDS011;27051;50.376;19.152;2023-03-07T15:26:47;70.70;;;38.20;;
41305;SDS011;27051;50.376;19.152;2023-03-07T15:29:15;52.10;;;23.30;;
41305;SDS011;27051;50.376;19.152;2023-03-07T15:35:16;49.80;;;30.40;;
41305;SDS011;27051;50.376;19.152;2023-03-07T15:40:27;50.70;;;24.70;;
41305;SDS011;27051;50.376;19.152;2023-03-07T15:43:00;46.60;;;21.70;;
41305;SDS011;27051;50.376;19.152;2023-03-07T15:45:42;35.30;;;18.30;;
41305;SDS011;27051;50.376;19.152;2023-03-07T15:51:16;29.60;;;15.40;;
41305;SDS011;27051;50.376;19.152;2023-03-07T15:53:44;32.80;;;16.50;;
41305;SDS011;27051;50.376;19.152;2023-03-07T15:58:54;42.20;;;21.20;;
41305;SDS011;27051;50.376;19.152;2023-03-07T16:01:25;65.30;;;28.80;;
41305;SDS011;27051;50.376;19.152;2023-03-07T16:09:11;44.30;;;22.70;;
41305;SDS011;27051;50.376;19.152;2023-03-07T16:11:39;60.10;;;29.90;;
41305;SDS011;27051;50.376;19.152;2023-03-07T16:14:25;42.10;;;21.50;;
41305;SDS011;27051;50.376;19.152;2023-03-07T16:16:58;63.30;;;30.30;;
41305;SDS011;27051;50.376;19.152;2023-03-07T16:19:27;49.00;;;27.60;;
41305;SDS011;27051;50.376;19.152;2023-03-07T16:21:53;46.70;;;26.30;;
41305;SDS011;27051;50.376;19.152;2023-03-07T16:24:19;48.50;;;28.20;;
41305;SDS011;27051;50.376;19.152;2023-03-07T16:26:45;45.20;;;24.40;;
41305;SDS011;27051;50.376;19.152;2023-03-07T16:29:13;48.40;;;25.40;;
41305;SDS011;27051;50.376;19.152;2023-03-07T16:31:41;68.10;;;34.90;;
41305;SDS011;27051;50.376;19.152;2023-03-07T16:34:17;42.50;;;19.70;;
41305;SDS011;27051;50.376;19.152;2023-03-07T16:36:45;41.70;;;21.00;;
41305;SDS011;27051;50.376;19.152;2023-03-07T16:39:11;51.50;;;22.80;;
41305;SDS011;27051;50.376;19.152;2023-03-07T16:41:38;52.60;;;24.60;;